createdAt,value
2022-08-20T00:02:21.532Z,6.10
2022-08-20T00:04:48.603Z,6.10
2022-08-20T00:07:15.876Z,6.38
2022-08-20T00:09:43.626Z,6.32
2022-08-20T00:12:11.326Z,6.30
2022-08-20T00:14:38.601Z,6.65
2022-08-20T00:17:06.600Z,6.60
2022-08-20T00:19:34.370Z,6.75
2022-08-20T00:22:01.478Z,7.03
2022-08-20T00:24:28.615Z,6.63
2022-08-20T00:26:55.696Z,7.00
2022-08-20T00:29:22.815Z,6.65
2022-08-20T00:31:50.547Z,6.95
2022-08-20T00:34:17.754Z,6.57
2022-08-20T00:36:44.922Z,6.97
2022-08-20T00:39:12.019Z,7.65
2022-08-20T00:41:39.264Z,7.22
2022-08-20T00:44:09.523Z,7.05
2022-08-20T00:46:36.861Z,6.60
2022-08-20T00:49:07.878Z,6.65
2022-08-20T00:51:43.090Z,6.35
2022-08-20T00:54:14.845Z,6.53
2022-08-20T00:56:43.882Z,6.10
2022-08-20T00:59:13.091Z,6.07
2022-08-20T01:01:55.319Z,7.40
2022-08-20T01:04:23.067Z,6.95
2022-08-20T01:06:50.832Z,7.03
2022-08-20T01:09:18.090Z,6.60
2022-08-20T01:12:06.021Z,6.57
2022-08-20T01:14:36.105Z,7.80
2022-08-20T01:17:05.803Z,7.55
2022-08-20T01:19:39.190Z,7.15
2022-08-20T01:22:27.283Z,8.30
2022-08-20T01:24:57.312Z,9.05
2022-08-20T01:27:24.893Z,8.80
2022-08-20T01:29:52.312Z,7.82
2022-08-20T01:32:19.429Z,8.85
2022-08-20T01:34:46.473Z,8.05
2022-08-20T01:37:13.586Z,7.93
2022-08-20T01:39:40.860Z,7.97
2022-08-20T01:42:21.161Z,8.65
2022-08-20T01:44:49.995Z,8.05
2022-08-20T01:47:22.805Z,8.70
2022-08-20T01:49:51.747Z,8.73
2022-08-20T01:52:37.493Z,8.43
2022-08-20T01:55:05.448Z,8.88
2022-08-20T01:57:33.407Z,9.88
2022-08-20T02:00:00.494Z,9.48
2022-08-20T02:02:27.617Z,9.57
2022-08-20T02:04:55.066Z,9.57
2022-08-20T02:07:23.598Z,9.35
2022-08-20T02:09:50.936Z,9.32
2022-08-20T02:12:18.664Z,9.20
2022-08-20T02:14:47.867Z,9.80
2022-08-20T02:17:15.540Z,10.18
2022-08-20T02:19:45.855Z,10.70
2022-08-20T02:22:21.865Z,11.60
2022-08-20T02:24:48.955Z,12.45
2022-08-20T02:27:16.494Z,12.55
2022-08-20T02:29:43.598Z,13.43
2022-08-20T02:32:24.574Z,15.13
2022-08-20T02:34:58.188Z,13.13
2022-08-20T02:37:25.325Z,14.50
2022-08-20T02:39:52.470Z,12.90
2022-08-20T02:42:19.562Z,11.48
2022-08-20T02:44:46.603Z,12.75
2022-08-20T02:47:13.722Z,12.25
2022-08-20T02:49:40.796Z,12.30
2022-08-20T02:52:07.924Z,10.63
2022-08-20T02:54:35.296Z,9.40
2022-08-20T02:57:03.279Z,12.18
2022-08-20T02:59:30.385Z,10.50
2022-08-20T03:02:00.387Z,10.90
2022-08-20T03:04:28.441Z,10.25
2022-08-20T03:06:55.592Z,9.68
2022-08-20T03:09:22.665Z,9.45
2022-08-20T03:11:49.831Z,9.88
2022-08-20T03:14:16.914Z,11.45
2022-08-20T03:16:44.060Z,9.82
2022-08-20T03:19:11.125Z,14.45
2022-08-20T03:21:38.175Z,15.13
2022-08-20T03:24:05.326Z,11.55
2022-08-20T03:26:32.387Z,10.27
2022-08-20T03:28:59.503Z,10.20
2022-08-20T03:31:26.672Z,10.27
2022-08-20T03:33:53.969Z,14.25
2022-08-20T03:36:28.261Z,15.43
2022-08-20T03:38:56.783Z,11.38
2022-08-20T03:41:24.297Z,9.88
2022-08-20T03:43:51.454Z,13.02
2022-08-20T03:46:23.247Z,11.18
2022-08-20T03:48:56.727Z,9.82
2022-08-20T03:51:28.484Z,12.48
2022-08-20T03:53:55.572Z,9.80
2022-08-20T03:56:22.622Z,8.52
2022-08-20T03:58:49.683Z,8.02
2022-08-20T04:01:45.855Z,8.02
2022-08-20T04:04:03.954Z,7.88
2022-08-20T04:06:31.034Z,7.63
2022-08-20T04:08:58.443Z,7.80
2022-08-20T04:11:25.594Z,7.80
2022-08-20T04:13:52.697Z,8.35
2022-08-20T04:16:20.049Z,8.40
2022-08-20T04:18:58.632Z,8.80
2022-08-20T04:21:29.651Z,9.68
2022-08-20T04:23:59.900Z,9.98
2022-08-20T04:26:29.188Z,9.43
2022-08-20T04:28:56.340Z,9.70
2022-08-20T04:31:33.272Z,5.88
2022-08-20T04:34:01.462Z,5.25
2022-08-20T04:36:28.631Z,4.57
2022-08-20T04:38:55.725Z,4.57
2022-08-20T04:41:24.194Z,5.68
2022-08-20T04:43:53.469Z,8.25
2022-08-20T04:46:21.192Z,10.75
2022-08-20T04:48:48.877Z,11.07
2022-08-20T04:51:17.218Z,11.48
2022-08-20T04:53:52.126Z,13.25
2022-08-20T04:56:23.789Z,14.80
2022-08-20T04:58:52.262Z,14.95
2022-08-20T05:01:19.671Z,14.65
2022-08-20T05:03:49.763Z,15.43
2022-08-20T05:06:18.060Z,16.05
2022-08-20T05:08:45.369Z,15.30
2022-08-20T05:11:34.299Z,16.48
2022-08-20T05:14:01.322Z,17.77
2022-08-20T05:16:28.488Z,17.15
2022-08-20T05:18:55.723Z,19.95
2022-08-20T05:21:22.917Z,18.30
2022-08-20T05:23:49.986Z,19.90
2022-08-20T05:26:19.932Z,21.83
2022-08-20T05:28:57.556Z,21.27
2022-08-20T05:31:31.302Z,22.38
2022-08-20T05:34:00.800Z,22.77
2022-08-20T05:36:27.899Z,21.27
2022-08-20T05:38:54.962Z,24.50
2022-08-20T05:41:28.490Z,23.95
2022-08-20T05:43:57.304Z,22.83
2022-08-20T05:46:24.411Z,24.10
2022-08-20T05:48:51.503Z,24.42
2022-08-20T05:51:18.577Z,25.33
2022-08-20T05:53:45.649Z,23.95
2022-08-20T05:56:12.731Z,23.60
2022-08-20T05:58:39.991Z,24.38
2022-08-20T06:01:07.184Z,21.25
2022-08-20T06:03:52.843Z,23.60
2022-08-20T06:06:44.916Z,22.83
2022-08-20T06:09:07.813Z,22.50
2022-08-20T06:11:37.163Z,22.10
2022-08-20T06:14:05.501Z,21.88
2022-08-20T06:16:32.611Z,20.50
2022-08-20T06:18:59.897Z,22.15
2022-08-20T06:21:30.002Z,19.52
2022-08-20T06:24:01.239Z,20.75
2022-08-20T06:26:30.303Z,18.63
2022-08-20T06:28:58.127Z,19.38
2022-08-20T06:31:25.336Z,19.00
2022-08-20T06:33:52.433Z,19.38
2022-08-20T06:36:19.693Z,19.50
2022-08-20T06:38:47.187Z,19.15
2022-08-20T06:41:14.400Z,21.17
2022-08-20T06:43:41.611Z,20.92
2022-08-20T06:46:08.834Z,20.05
2022-08-20T06:48:36.643Z,22.70
2022-08-20T06:51:06.399Z,21.73
2022-08-20T06:53:33.481Z,21.75
2022-08-20T06:56:00.568Z,22.13
2022-08-20T06:58:35.768Z,20.88
2022-08-20T07:01:05.341Z,20.52
2022-08-20T07:03:38.091Z,21.00
2022-08-20T07:06:05.504Z,18.83
2022-08-20T07:08:32.581Z,19.90
2022-08-20T07:10:59.782Z,19.90
2022-08-20T07:13:26.953Z,19.48
2022-08-20T07:15:54.196Z,20.38
2022-08-20T07:18:28.470Z,20.45
2022-08-20T07:20:57.322Z,18.77
2022-08-20T07:23:25.706Z,20.67
2022-08-20T07:25:53.145Z,18.23
2022-08-20T07:28:22.365Z,17.95
2022-08-20T07:31:13.313Z,18.67
2022-08-20T07:33:41.669Z,18.45
2022-08-20T07:36:09.349Z,17.85
2022-08-20T07:38:37.104Z,17.55
2022-08-20T07:41:06.330Z,17.42
2022-08-20T07:43:33.701Z,17.02
2022-08-20T07:46:02.039Z,16.58
2022-08-20T07:48:31.954Z,16.63
2022-08-20T07:51:00.845Z,15.00
2022-08-20T07:53:32.286Z,16.02
2022-08-20T07:56:03.175Z,15.70
2022-08-20T07:58:33.604Z,15.50
2022-08-20T08:01:01.032Z,13.40
2022-08-20T08:03:40.449Z,15.98
2022-08-20T08:06:19.627Z,14.27
2022-08-20T08:08:57.256Z,17.33
2022-08-20T08:11:24.424Z,15.55
2022-08-20T08:13:51.895Z,15.73
2022-08-20T08:16:20.017Z,15.00
2022-08-20T08:18:49.885Z,15.30
2022-08-20T08:21:17.690Z,13.85
2022-08-20T08:23:44.845Z,15.48
2022-08-20T08:26:16.049Z,15.23
2022-08-20T08:28:46.052Z,15.80
2022-08-20T08:31:13.739Z,15.57
2022-08-20T08:33:40.973Z,14.38
2022-08-20T08:36:12.309Z,14.65
2022-08-20T08:38:40.390Z,15.27
2022-08-20T08:41:19.189Z,15.43
2022-08-20T08:43:47.879Z,15.88
2022-08-20T08:46:17.997Z,14.63
2022-08-20T08:48:47.703Z,15.88
2022-08-20T08:51:17.265Z,17.77
2022-08-20T08:53:54.592Z,17.38
2022-08-20T08:56:24.381Z,17.88
2022-08-20T08:58:51.616Z,18.60
2022-08-20T09:01:53.913Z,19.60
2022-08-20T09:04:08.182Z,19.77
2022-08-20T09:06:35.363Z,17.80
2022-08-20T09:09:03.801Z,20.50
2022-08-20T09:11:31.389Z,18.80
2022-08-20T09:13:58.723Z,21.17
2022-08-20T09:16:28.016Z,21.83
2022-08-20T09:19:04.381Z,22.33
2022-08-20T09:21:31.450Z,21.27
2022-08-20T09:23:58.502Z,19.55
2022-08-20T09:26:29.160Z,19.95
2022-08-20T09:28:56.352Z,21.70
2022-08-20T09:31:24.365Z,20.50
2022-08-20T09:33:52.035Z,18.55
2022-08-20T09:36:31.671Z,18.92
2022-08-20T09:38:59.822Z,19.25
2022-08-20T09:41:26.918Z,18.75
2022-08-20T09:43:54.467Z,17.63
2022-08-20T09:46:27.218Z,18.17
2022-08-20T09:48:54.569Z,18.25
2022-08-20T09:51:21.828Z,16.38
2022-08-20T09:53:52.013Z,17.15
2022-08-20T09:56:19.281Z,15.93
2022-08-20T09:58:50.581Z,16.92
2022-08-20T10:01:18.426Z,17.90
2022-08-20T10:03:48.072Z,17.80
2022-08-20T10:06:16.704Z,16.33
2022-08-20T10:08:44.189Z,16.33
2022-08-20T10:11:11.284Z,16.40
2022-08-20T10:13:38.349Z,18.17
2022-08-20T10:16:05.824Z,16.77
2022-08-20T10:18:32.949Z,18.23
2022-08-20T10:21:00.036Z,16.98
2022-08-20T10:23:27.220Z,18.35
2022-08-20T10:25:54.437Z,17.15
2022-08-20T10:28:21.539Z,19.05
2022-08-20T10:30:48.642Z,20.23
2022-08-20T10:33:15.697Z,18.27
2022-08-20T10:35:42.803Z,19.63
2022-08-20T10:38:10.730Z,20.65
2022-08-20T10:40:37.896Z,20.05
2022-08-20T10:43:05.171Z,19.27
2022-08-20T10:45:32.297Z,19.15
2022-08-20T10:48:00.445Z,21.10
2022-08-20T10:50:29.529Z,21.40
2022-08-20T10:52:58.077Z,21.05
2022-08-20T10:55:25.196Z,22.05
2022-08-20T10:57:52.330Z,22.13
2022-08-20T11:00:20.183Z,21.92
2022-08-20T11:02:47.553Z,21.20
2022-08-20T11:05:14.637Z,21.33
2022-08-20T11:07:55.291Z,20.00
2022-08-20T11:10:28.839Z,19.27
2022-08-20T11:12:56.154Z,19.40
2022-08-20T11:15:23.392Z,20.50
2022-08-20T11:17:50.618Z,19.67
2022-08-20T11:20:19.184Z,22.10
2022-08-20T11:22:46.312Z,18.58
2022-08-20T11:25:13.506Z,18.65
2022-08-20T11:27:43.123Z,19.73
2022-08-20T11:30:12.389Z,17.15
2022-08-20T11:32:39.481Z,11.52
2022-08-20T11:35:38.534Z,17.10
2022-08-20T11:37:55.727Z,16.77
2022-08-20T11:40:23.518Z,15.43
2022-08-20T11:43:13.049Z,15.52
2022-08-20T11:45:37.973Z,14.93
2022-08-20T11:48:05.321Z,16.30
2022-08-20T11:50:32.369Z,15.38
2022-08-20T11:53:01.085Z,14.05
2022-08-20T11:55:30.544Z,14.57
2022-08-20T11:57:58.753Z,14.70
2022-08-20T12:00:31.937Z,14.70
2022-08-20T12:03:00.042Z,12.82
2022-08-20T12:05:29.302Z,11.85
2022-08-20T12:07:56.381Z,13.93
2022-08-20T12:10:24.475Z,11.52
2022-08-20T12:12:51.713Z,11.45
2022-08-20T12:15:18.816Z,11.90
2022-08-20T12:17:45.966Z,13.00
2022-08-20T12:20:14.065Z,10.82
2022-08-20T12:22:41.416Z,12.65
2022-08-20T12:25:09.298Z,11.73
2022-08-20T12:27:37.382Z,10.25
2022-08-20T12:30:09.646Z,11.43
2022-08-20T12:32:37.284Z,10.65
2022-08-20T12:35:04.895Z,10.60
2022-08-20T12:37:32.474Z,9.00
2022-08-20T12:40:00.485Z,9.73
2022-08-20T12:42:29.394Z,9.00
2022-08-20T12:44:56.682Z,10.73
2022-08-20T12:47:25.463Z,9.60
2022-08-20T12:49:54.184Z,9.05
2022-08-20T12:52:21.932Z,7.10
2022-08-20T12:54:49.153Z,9.25
2022-08-20T12:57:17.446Z,9.98
2022-08-20T12:59:44.664Z,9.90
2022-08-20T13:02:14.400Z,8.05
2022-08-20T13:04:46.231Z,8.82
2022-08-20T13:07:13.684Z,8.05
2022-08-20T13:09:41.078Z,8.20
2022-08-20T13:12:08.543Z,10.63
2022-08-20T13:14:35.949Z,9.57
2022-08-20T13:17:03.469Z,8.50
2022-08-20T13:19:31.420Z,9.07
2022-08-20T13:21:58.602Z,9.25
2022-08-20T13:24:25.712Z,9.60
2022-08-20T13:26:52.896Z,8.75
2022-08-20T13:29:20.220Z,9.68
2022-08-20T13:31:47.323Z,8.73
2022-08-20T13:34:14.392Z,10.55
2022-08-20T13:36:41.509Z,9.05
2022-08-20T13:39:08.668Z,9.48
2022-08-20T13:41:35.858Z,10.38
2022-08-20T13:44:03.022Z,10.60
2022-08-20T13:46:30.104Z,9.90
2022-08-20T13:48:57.173Z,10.88
2022-08-20T13:51:24.295Z,10.40
2022-08-20T13:53:54.747Z,9.70
2022-08-20T13:56:22.990Z,9.18
2022-08-20T13:58:50.102Z,9.57
2022-08-20T14:01:20.226Z,8.65
2022-08-20T14:03:47.783Z,9.55
2022-08-20T14:06:14.850Z,8.18
2022-08-20T14:08:41.906Z,7.95
2022-08-20T14:11:12.796Z,9.18
2022-08-20T14:13:44.913Z,7.10
2022-08-20T14:16:21.435Z,7.40
2022-08-20T14:18:56.235Z,8.00
2022-08-20T14:21:23.389Z,7.13
2022-08-20T14:23:50.444Z,6.60
2022-08-20T14:26:17.497Z,6.97
2022-08-20T14:28:44.598Z,6.57
2022-08-20T14:31:11.663Z,5.30
2022-08-20T14:33:43.949Z,5.65
2022-08-20T14:36:13.667Z,6.47
2022-08-20T14:38:45.029Z,6.20
2022-08-20T14:41:12.139Z,6.30
2022-08-20T14:43:39.217Z,5.80
2022-08-20T14:46:06.503Z,5.38
2022-08-20T14:48:33.613Z,6.53
2022-08-20T14:51:01.856Z,6.35
2022-08-20T14:53:28.993Z,5.93
2022-08-20T14:55:56.050Z,7.15
2022-08-20T14:58:23.171Z,6.55
2022-08-20T15:00:51.776Z,7.25
2022-08-20T15:03:20.949Z,7.20
2022-08-20T15:05:50.997Z,7.00
2022-08-20T15:08:18.072Z,7.93
2022-08-20T15:10:45.245Z,8.43
2022-08-20T15:13:12.321Z,7.32
2022-08-20T15:15:40.515Z,8.35
2022-08-20T15:18:07.584Z,7.45
2022-08-20T15:20:35.976Z,7.47
2022-08-20T15:23:04.486Z,8.50
2022-08-20T15:25:36.799Z,8.90
2022-08-20T15:28:05.706Z,8.30
2022-08-20T15:30:33.360Z,7.43
2022-08-20T15:33:01.008Z,7.85
2022-08-20T15:35:29.008Z,8.02
2022-08-20T15:37:57.291Z,8.20
2022-08-20T15:40:28.158Z,7.95
2022-08-20T15:42:55.996Z,8.40
2022-08-20T15:45:23.044Z,7.95
2022-08-20T15:47:53.150Z,8.10
2022-08-20T15:50:31.812Z,8.13
2022-08-20T15:53:04.982Z,8.20
2022-08-20T15:55:32.090Z,6.57
2022-08-20T15:58:01.872Z,6.75
2022-08-20T16:00:41.139Z,7.28
2022-08-20T16:03:15.793Z,7.20
2022-08-20T16:05:45.332Z,7.65
2022-08-20T16:08:18.430Z,6.18
2022-08-20T16:11:00.583Z,6.32
2022-08-20T16:13:33.525Z,7.03
2022-08-20T16:16:01.773Z,6.50
2022-08-20T16:18:31.649Z,6.63
2022-08-20T16:21:03.048Z,5.75
2022-08-20T16:23:37.099Z,5.95
2022-08-20T16:26:22.713Z,6.00
2022-08-20T16:28:57.388Z,7.07
2022-08-20T16:31:26.198Z,6.20
2022-08-20T16:34:33.252Z,6.72
2022-08-20T16:37:03.451Z,6.75
2022-08-20T16:39:44.099Z,6.28
2022-08-20T16:42:11.467Z,6.70
2022-08-20T16:44:40.302Z,7.10
2022-08-20T16:47:18.614Z,6.10
2022-08-20T16:50:11.038Z,6.55
2022-08-20T16:52:42.216Z,6.43
2022-08-20T16:55:09.567Z,7.18
2022-08-20T16:57:36.723Z,6.07
2022-08-20T17:00:15.858Z,5.88
2022-08-20T17:02:50.514Z,5.88
2022-08-20T17:05:17.640Z,6.43
2022-08-20T17:07:49.423Z,6.25
2022-08-20T17:10:24.822Z,5.63
2022-08-20T17:12:52.902Z,6.10
2022-08-20T17:15:22.105Z,6.15
2022-08-20T17:17:49.222Z,6.20
2022-08-20T17:20:20.047Z,6.10
2022-08-20T17:23:07.630Z,6.90
2022-08-20T17:25:38.158Z,5.50
2022-08-20T17:28:19.202Z,6.18
2022-08-20T17:30:47.368Z,5.85
2022-08-20T17:33:20.698Z,5.68
2022-08-20T17:36:13.939Z,6.32
2022-08-20T17:38:46.319Z,5.80
2022-08-20T17:41:17.807Z,5.90
2022-08-20T17:43:45.014Z,6.50
2022-08-20T17:46:16.370Z,6.60
2022-08-20T17:48:44.865Z,6.13
2022-08-20T17:51:22.005Z,5.60
2022-08-20T17:53:54.090Z,5.70
2022-08-20T17:56:26.884Z,6.20
2022-08-20T17:58:57.302Z,5.93
2022-08-20T18:01:30.409Z,5.50
2022-08-20T18:03:58.338Z,6.20
2022-08-20T18:06:31.000Z,5.88
2022-08-20T18:08:58.177Z,6.07
2022-08-20T18:11:28.087Z,6.72
2022-08-20T18:14:10.514Z,6.32
2022-08-20T18:16:59.969Z,5.65
2022-08-20T18:19:45.349Z,6.10
2022-08-20T18:22:21.442Z,5.70
2022-08-20T18:24:54.949Z,5.75
2022-08-20T18:27:25.547Z,5.82
2022-08-20T18:29:55.990Z,5.93
2022-08-20T18:32:28.572Z,5.90
2022-08-20T18:35:06.997Z,6.03
2022-08-20T18:37:34.189Z,5.85
2022-08-20T18:40:10.017Z,6.20
2022-08-20T18:42:38.156Z,6.43
2022-08-20T18:45:06.053Z,5.90
2022-08-20T18:47:33.123Z,5.53
2022-08-20T18:50:16.166Z,5.53
2022-08-20T18:52:46.644Z,6.28
2022-08-20T18:55:28.689Z,5.53
2022-08-20T18:57:58.134Z,4.88
2022-08-20T19:00:30.118Z,5.18
2022-08-20T19:03:09.572Z,5.25
2022-08-20T19:05:45.646Z,4.57
2022-08-20T19:08:23.626Z,4.57
2022-08-20T19:10:57.442Z,5.00
2022-08-20T19:13:40.646Z,4.60
2022-08-20T19:16:14.949Z,4.40
2022-08-20T19:18:42.006Z,4.78
2022-08-20T19:21:15.648Z,4.45
2022-08-20T19:23:47.319Z,4.68
2022-08-20T19:26:25.433Z,4.72
2022-08-20T19:28:55.736Z,4.30
2022-08-20T19:31:24.552Z,4.20
2022-08-20T19:34:19.524Z,4.35
2022-08-20T19:36:53.246Z,4.80
2022-08-20T19:39:24.726Z,4.63
2022-08-20T19:42:01.243Z,4.43
2022-08-20T19:44:40.296Z,4.63
2022-08-20T19:47:13.129Z,4.45
2022-08-20T19:50:01.935Z,4.88
2022-08-20T19:52:35.894Z,4.60
2022-08-20T19:55:04.028Z,4.95
2022-08-20T19:57:31.651Z,4.25
2022-08-20T20:00:00.800Z,4.70
2022-08-20T20:02:29.657Z,4.53
2022-08-20T20:04:58.113Z,3.95
2022-08-20T20:07:27.466Z,4.10
2022-08-20T20:09:56.552Z,3.97
2022-08-20T20:12:24.175Z,3.85
2022-08-20T20:14:53.292Z,3.80
2022-08-20T20:17:23.318Z,3.67
2022-08-20T20:19:59.104Z,3.40
2022-08-20T20:22:33.774Z,4.03
2022-08-20T20:25:27.212Z,3.10
2022-08-20T20:27:55.946Z,4.20
2022-08-20T20:30:26.489Z,4.05
2022-08-20T20:32:53.688Z,4.00
2022-08-20T20:35:29.656Z,4.43
2022-08-20T20:37:59.450Z,4.07
2022-08-20T20:40:28.267Z,4.40
2022-08-20T20:43:04.825Z,5.18
2022-08-20T20:45:42.580Z,4.28
2022-08-20T20:48:16.111Z,4.57
2022-08-20T20:50:43.400Z,4.32
2022-08-20T20:53:10.633Z,4.32
2022-08-20T20:55:38.692Z,3.92
2022-08-20T20:58:05.952Z,4.75
2022-08-20T21:00:34.038Z,4.38
2022-08-20T21:03:03.767Z,4.35
2022-08-20T21:05:32.501Z,4.40
2022-08-20T21:08:04.377Z,4.38
2022-08-20T21:10:32.546Z,4.15
2022-08-20T21:13:00.775Z,4.32
2022-08-20T21:15:28.086Z,4.13
2022-08-20T21:17:55.778Z,4.03
2022-08-20T21:20:22.939Z,3.80
2022-08-20T21:22:50.073Z,3.75
2022-08-20T21:25:18.821Z,3.90
2022-08-20T21:27:47.331Z,3.47
2022-08-20T21:30:15.411Z,3.92
2022-08-20T21:32:42.497Z,3.67
2022-08-20T21:35:10.392Z,3.60
2022-08-20T21:37:37.456Z,3.97
2022-08-20T21:40:05.543Z,3.85
2022-08-20T21:42:32.744Z,4.80
2022-08-20T21:45:04.750Z,3.97
2022-08-20T21:47:31.925Z,4.00
2022-08-20T21:49:58.996Z,4.13
2022-08-20T21:52:26.080Z,4.10
2022-08-20T21:54:54.237Z,4.28
2022-08-20T21:57:24.156Z,3.75
2022-08-20T21:59:51.832Z,4.13
2022-08-20T22:02:19.540Z,3.88
2022-08-20T22:04:46.685Z,3.88
2022-08-20T22:07:14.222Z,3.53
2022-08-20T22:09:41.281Z,3.35
2022-08-20T22:12:13.232Z,3.28
2022-08-20T22:14:40.298Z,2.65
2022-08-20T22:17:07.361Z,3.00
2022-08-20T22:19:34.463Z,3.20
2022-08-20T22:22:01.586Z,2.88
2022-08-20T22:24:29.475Z,3.10
2022-08-20T22:26:56.645Z,2.85
2022-08-20T22:29:23.806Z,2.95
2022-08-20T22:31:50.884Z,2.80
2022-08-20T22:34:19.122Z,3.10
2022-08-20T22:36:46.225Z,2.58
2022-08-20T22:39:13.337Z,2.80
2022-08-20T22:41:40.743Z,2.72
2022-08-20T22:44:07.938Z,3.15
2022-08-20T22:46:36.517Z,2.72
2022-08-20T22:49:04.322Z,2.47
2022-08-20T22:51:36.653Z,2.60
2022-08-20T22:54:07.887Z,2.63
2022-08-20T22:56:35.025Z,2.65
2022-08-20T22:59:02.458Z,2.90
2022-08-20T23:01:29.839Z,2.47
2022-08-20T23:04:01.234Z,2.63
2022-08-20T23:06:29.460Z,2.60
2022-08-20T23:08:56.577Z,2.78
2022-08-20T23:11:23.650Z,2.30
2022-08-20T23:13:50.744Z,2.20
2022-08-20T23:16:17.866Z,2.72
2022-08-20T23:18:44.937Z,2.75
2022-08-20T23:21:12.047Z,2.45
2022-08-20T23:23:39.088Z,2.65
2022-08-20T23:26:06.536Z,2.40
2022-08-20T23:28:33.972Z,2.33
2022-08-20T23:31:01.032Z,2.35
2022-08-20T23:33:28.150Z,2.45
2022-08-20T23:35:55.508Z,2.45
2022-08-20T23:38:22.915Z,2.45
2022-08-20T23:40:49.960Z,2.40
2022-08-20T23:43:18.621Z,2.60
2022-08-20T23:45:45.777Z,3.28
2022-08-20T23:48:12.901Z,3.65
2022-08-20T23:50:39.950Z,3.38
2022-08-20T23:53:07.107Z,3.22
2022-08-20T23:55:34.218Z,3.35
2022-08-20T23:58:01.339Z,3.20
